sensor_id;sensor_type;location;lat;lon;timestamp;P1;durP1;ratioP1;P2;durP2;ratioP2
5333;SDS011;2689;50.954;7.116;2023-03-13T00:00:25;12.60;;;3.43;;
5333;SDS011;2689;50.954;7.116;2023-03-13T00:02:52;15.57;;;4.73;;
5333;SDS011;2689;50.954;7.116;2023-03-13T00:05:20;15.37;;;4.60;;
5333;SDS011;2689;50.954;7.116;2023-03-13T00:07:49;17.40;;;2.97;;
5333;SDS011;2689;50.954;7.116;2023-03-13T00:10:15;12.20;;;3.10;;
5333;SDS011;2689;50.954;7.116;2023-03-13T00:12:42;14.40;;;3.33;;
5333;SDS011;2689;50.954;7.116;2023-03-13T00:15:10;16.67;;;4.57;;
5333;SDS011;2689;50.954;7.116;2023-03-13T00:17:37;7.47;;;2.47;;
5333;SDS011;2689;50.954;7.116;2023-03-13T00:20:04;14.87;;;3.27;;
5333;SDS011;2689;50.954;7.116;2023-03-13T00:22:33;21.47;;;4.30;;
5333;SDS011;2689;50.954;7.116;2023-03-13T00:25:01;20.20;;;3.50;;
5333;SDS011;2689;50.954;7.116;2023-03-13T00:27:31;13.93;;;3.73;;
5333;SDS011;2689;50.954;7.116;2023-03-13T00:29:58;16.53;;;3.90;;
5333;SDS011;2689;50.954;7.116;2023-03-13T00:32:26;11.93;;;3.70;;
5333;SDS011;2689;50.954;7.116;2023-03-13T00:34:53;19.73;;;3.67;;
5333;SDS011;2689;50.954;7.116;2023-03-13T00:37:20;13.63;;;3.47;;
5333;SDS011;2689;50.954;7.116;2023-03-13T00:39:46;18.70;;;3.83;;
5333;SDS011;2689;50.954;7.116;2023-03-13T00:42:15;12.50;;;3.30;;
5333;SDS011;2689;50.954;7.116;2023-03-13T00:44:44;14.43;;;3.47;;
5333;SDS011;2689;50.954;7.116;2023-03-13T00:47:11;10.87;;;2.67;;
5333;SDS011;2689;50.954;7.116;2023-03-13T00:49:37;12.10;;;2.10;;
5333;SDS011;2689;50.954;7.116;2023-03-13T00:52:04;18.17;;;3.53;;
5333;SDS011;2689;50.954;7.116;2023-03-13T00:54:32;9.73;;;2.20;;
5333;SDS011;2689;50.954;7.116;2023-03-13T00:56:59;14.23;;;2.80;;
5333;SDS011;2689;50.954;7.116;2023-03-13T00:59:27;13.57;;;4.03;;
5333;SDS011;2689;50.954;7.116;2023-03-13T01:01:54;11.73;;;2.87;;
5333;SDS011;2689;50.954;7.116;2023-03-13T01:04:21;15.63;;;2.70;;
5333;SDS011;2689;50.954;7.116;2023-03-13T01:06:47;11.33;;;3.00;;
5333;SDS011;2689;50.954;7.116;2023-03-13T01:09:15;16.03;;;3.50;;
5333;SDS011;2689;50.954;7.116;2023-03-13T01:11:42;10.97;;;3.40;;
5333;SDS011;2689;50.954;7.116;2023-03-13T01:14:11;16.13;;;3.70;;
5333;SDS011;2689;50.954;7.116;2023-03-13T01:16:41;17.80;;;3.53;;
5333;SDS011;2689;50.954;7.116;2023-03-13T01:19:08;12.77;;;3.23;;
5333;SDS011;2689;50.954;7.116;2023-03-13T01:21:45;17.63;;;3.30;;
5333;SDS011;2689;50.954;7.116;2023-03-13T01:24:12;17.37;;;3.27;;
5333;SDS011;2689;50.954;7.116;2023-03-13T01:26:41;17.13;;;3.60;;
5333;SDS011;2689;50.954;7.116;2023-03-13T01:29:09;12.47;;;3.40;;
5333;SDS011;2689;50.954;7.116;2023-03-13T01:31:36;20.33;;;3.70;;
5333;SDS011;2689;50.954;7.116;2023-03-13T01:34:05;15.87;;;3.80;;
5333;SDS011;2689;50.954;7.116;2023-03-13T01:36:34;17.17;;;4.17;;
5333;SDS011;2689;50.954;7.116;2023-03-13T01:39:05;15.13;;;4.00;;
5333;SDS011;2689;50.954;7.116;2023-03-13T01:41:32;11.87;;;3.30;;
5333;SDS011;2689;50.954;7.116;2023-03-13T01:43:59;11.60;;;3.17;;
5333;SDS011;2689;50.954;7.116;2023-03-13T01:46:29;16.50;;;3.63;;
5333;SDS011;2689;50.954;7.116;2023-03-13T01:48:59;13.03;;;3.50;;
5333;SDS011;2689;50.954;7.116;2023-03-13T01:51:32;18.87;;;4.10;;
5333;SDS011;2689;50.954;7.116;2023-03-13T01:54:02;21.03;;;4.10;;
5333;SDS011;2689;50.954;7.116;2023-03-13T01:56:35;17.70;;;4.43;;
5333;SDS011;2689;50.954;7.116;2023-03-13T01:59:05;14.77;;;3.63;;
5333;SDS011;2689;50.954;7.116;2023-03-13T02:01:35;14.47;;;3.60;;
5333;SDS011;2689;50.954;7.116;2023-03-13T02:04:02;13.67;;;3.90;;
5333;SDS011;2689;50.954;7.116;2023-03-13T02:06:33;17.73;;;3.20;;
5333;SDS011;2689;50.954;7.116;2023-03-13T02:09:04;12.23;;;4.07;;
5333;SDS011;2689;50.954;7.116;2023-03-13T02:11:38;12.27;;;3.20;;
5333;SDS011;2689;50.954;7.116;2023-03-13T02:14:13;14.50;;;3.27;;
5333;SDS011;2689;50.954;7.116;2023-03-13T02:16:42;8.70;;;2.30;;
5333;SDS011;2689;50.954;7.116;2023-03-13T02:19:16;13.13;;;3.50;;
5333;SDS011;2689;50.954;7.116;2023-03-13T02:21:47;9.73;;;3.17;;
5333;SDS011;2689;50.954;7.116;2023-03-13T02:27:36;9.63;;;2.90;;
5333;SDS011;2689;50.954;7.116;2023-03-13T02:30:05;14.10;;;3.00;;
5333;SDS011;2689;50.954;7.116;2023-03-13T02:32:34;9.97;;;3.27;;
5333;SDS011;2689;50.954;7.116;2023-03-13T02:35:03;6.53;;;2.30;;
5333;SDS011;2689;50.954;7.116;2023-03-13T02:37:33;9.43;;;3.10;;
5333;SDS011;2689;50.954;7.116;2023-03-13T02:40:02;6.87;;;2.60;;
5333;SDS011;2689;50.954;7.116;2023-03-13T02:42:33;10.43;;;2.23;;
5333;SDS011;2689;50.954;7.116;2023-03-13T02:45:03;14.77;;;3.20;;
5333;SDS011;2689;50.954;7.116;2023-03-13T02:47:30;9.30;;;2.27;;
5333;SDS011;2689;50.954;7.116;2023-03-13T02:49:57;8.47;;;2.43;;
5333;SDS011;2689;50.954;7.116;2023-03-13T02:52:25;5.40;;;2.07;;
5333;SDS011;2689;50.954;7.116;2023-03-13T02:54:55;7.10;;;2.80;;
5333;SDS011;2689;50.954;7.116;2023-03-13T02:57:25;7.37;;;2.50;;
5333;SDS011;2689;50.954;7.116;2023-03-13T02:59:53;6.13;;;2.27;;
5333;SDS011;2689;50.954;7.116;2023-03-13T03:02:21;7.47;;;2.47;;
5333;SDS011;2689;50.954;7.116;2023-03-13T03:04:48;7.33;;;1.97;;
5333;SDS011;2689;50.954;7.116;2023-03-13T03:07:15;10.70;;;3.80;;
5333;SDS011;2689;50.954;7.116;2023-03-13T03:09:42;7.97;;;2.30;;
5333;SDS011;2689;50.954;7.116;2023-03-13T03:12:09;5.00;;;1.97;;
5333;SDS011;2689;50.954;7.116;2023-03-13T03:14:36;6.10;;;2.40;;
5333;SDS011;2689;50.954;7.116;2023-03-13T03:17:03;5.03;;;2.03;;
5333;SDS011;2689;50.954;7.116;2023-03-13T03:19:32;5.30;;;1.93;;
5333;SDS011;2689;50.954;7.116;2023-03-13T03:22:01;4.70;;;2.10;;
5333;SDS011;2689;50.954;7.116;2023-03-13T03:24:28;2.40;;;1.77;;
5333;SDS011;2689;50.954;7.116;2023-03-13T03:26:55;4.70;;;2.20;;
5333;SDS011;2689;50.954;7.116;2023-03-13T03:29:22;6.97;;;2.10;;
5333;SDS011;2689;50.954;7.116;2023-03-13T03:31:49;7.07;;;2.13;;
5333;SDS011;2689;50.954;7.116;2023-03-13T03:34:15;4.43;;;2.47;;
5333;SDS011;2689;50.954;7.116;2023-03-13T03:36:44;4.57;;;1.87;;
5333;SDS011;2689;50.954;7.116;2023-03-13T03:39:11;7.23;;;1.70;;
5333;SDS011;2689;50.954;7.116;2023-03-13T03:41:37;5.77;;;2.00;;
5333;SDS011;2689;50.954;7.116;2023-03-13T03:44:04;4.20;;;2.23;;
5333;SDS011;2689;50.954;7.116;2023-03-13T03:46:31;2.87;;;1.40;;
5333;SDS011;2689;50.954;7.116;2023-03-13T03:48:58;5.67;;;1.57;;
5333;SDS011;2689;50.954;7.116;2023-03-13T03:51:25;9.70;;;1.80;;
5333;SDS011;2689;50.954;7.116;2023-03-13T03:53:53;1.97;;;1.40;;
5333;SDS011;2689;50.954;7.116;2023-03-13T03:56:20;2.33;;;1.30;;
5333;SDS011;2689;50.954;7.116;2023-03-13T03:58:47;8.13;;;2.10;;
5333;SDS011;2689;50.954;7.116;2023-03-13T04:01:14;7.57;;;1.77;;
5333;SDS011;2689;50.954;7.116;2023-03-13T04:03:41;3.30;;;1.97;;
5333;SDS011;2689;50.954;7.116;2023-03-13T04:06:07;3.37;;;1.40;;
5333;SDS011;2689;50.954;7.116;2023-03-13T04:08:35;8.63;;;1.70;;
5333;SDS011;2689;50.954;7.116;2023-03-13T04:11:04;3.47;;;1.73;;
5333;SDS011;2689;50.954;7.116;2023-03-13T04:13:31;3.57;;;1.57;;
5333;SDS011;2689;50.954;7.116;2023-03-13T04:15:57;3.77;;;1.40;;
5333;SDS011;2689;50.954;7.116;2023-03-13T04:18:24;2.60;;;1.53;;
5333;SDS011;2689;50.954;7.116;2023-03-13T04:20:58;3.60;;;1.40;;
5333;SDS011;2689;50.954;7.116;2023-03-13T04:23:25;3.17;;;1.40;;
5333;SDS011;2689;50.954;7.116;2023-03-13T04:25:52;3.17;;;1.63;;
5333;SDS011;2689;50.954;7.116;2023-03-13T04:28:20;3.23;;;1.40;;
5333;SDS011;2689;50.954;7.116;2023-03-13T04:30:47;2.70;;;1.80;;
5333;SDS011;2689;50.954;7.116;2023-03-13T04:33:14;4.13;;;1.23;;
5333;SDS011;2689;50.954;7.116;2023-03-13T04:35:41;2.03;;;1.20;;
5333;SDS011;2689;50.954;7.116;2023-03-13T04:38:09;3.27;;;1.67;;
5333;SDS011;2689;50.954;7.116;2023-03-13T04:40:35;1.53;;;1.10;;
5333;SDS011;2689;50.954;7.116;2023-03-13T04:43:02;5.63;;;2.13;;
5333;SDS011;2689;50.954;7.116;2023-03-13T04:45:30;3.70;;;2.33;;
5333;SDS011;2689;50.954;7.116;2023-03-13T04:47:57;3.23;;;1.83;;
5333;SDS011;2689;50.954;7.116;2023-03-13T04:50:24;2.17;;;1.47;;
5333;SDS011;2689;50.954;7.116;2023-03-13T04:52:51;1.73;;;1.10;;
5333;SDS011;2689;50.954;7.116;2023-03-13T04:55:18;2.17;;;1.30;;
5333;SDS011;2689;50.954;7.116;2023-03-13T04:57:45;2.80;;;1.90;;
5333;SDS011;2689;50.954;7.116;2023-03-13T05:00:12;2.93;;;1.73;;
5333;SDS011;2689;50.954;7.116;2023-03-13T05:02:40;2.20;;;1.50;;
5333;SDS011;2689;50.954;7.116;2023-03-13T05:05:07;3.37;;;1.50;;
5333;SDS011;2689;50.954;7.116;2023-03-13T05:07:34;2.47;;;1.70;;
5333;SDS011;2689;50.954;7.116;2023-03-13T05:10:01;2.30;;;1.47;;
5333;SDS011;2689;50.954;7.116;2023-03-13T05:12:28;1.87;;;1.50;;
5333;SDS011;2689;50.954;7.116;2023-03-13T05:14:55;3.30;;;2.43;;
5333;SDS011;2689;50.954;7.116;2023-03-13T05:17:22;5.17;;;2.40;;
5333;SDS011;2689;50.954;7.116;2023-03-13T05:19:50;2.70;;;1.97;;
5333;SDS011;2689;50.954;7.116;2023-03-13T05:22:16;5.60;;;2.50;;
5333;SDS011;2689;50.954;7.116;2023-03-13T05:24:43;3.87;;;1.00;;
5333;SDS011;2689;50.954;7.116;2023-03-13T05:27:10;1.50;;;1.00;;
5333;SDS011;2689;50.954;7.116;2023-03-13T05:29:38;1.40;;;1.00;;
5333;SDS011;2689;50.954;7.116;2023-03-13T05:32:04;1.50;;;1.00;;
5333;SDS011;2689;50.954;7.116;2023-03-13T05:34:31;2.13;;;1.37;;
5333;SDS011;2689;50.954;7.116;2023-03-13T05:37:00;9.97;;;7.60;;
5333;SDS011;2689;50.954;7.116;2023-03-13T05:39:26;3.43;;;1.40;;
5333;SDS011;2689;50.954;7.116;2023-03-13T05:41:53;2.03;;;1.10;;
5333;SDS011;2689;50.954;7.116;2023-03-13T05:44:20;1.30;;;1.10;;
5333;SDS011;2689;50.954;7.116;2023-03-13T05:46:47;1.60;;;1.10;;
5333;SDS011;2689;50.954;7.116;2023-03-13T05:49:13;2.10;;;1.30;;
5333;SDS011;2689;50.954;7.116;2023-03-13T05:51:40;1.50;;;1.10;;
5333;SDS011;2689;50.954;7.116;2023-03-13T05:54:08;1.67;;;1.00;;
5333;SDS011;2689;50.954;7.116;2023-03-13T05:56:35;1.70;;;1.13;;
5333;SDS011;2689;50.954;7.116;2023-03-13T06:01:37;1.60;;;0.80;;
5333;SDS011;2689;50.954;7.116;2023-03-13T06:04:04;1.40;;;1.03;;
5333;SDS011;2689;50.954;7.116;2023-03-13T06:06:31;1.77;;;1.00;;
5333;SDS011;2689;50.954;7.116;2023-03-13T06:08:58;1.57;;;1.17;;
5333;SDS011;2689;50.954;7.116;2023-03-13T06:11:26;2.27;;;1.00;;
5333;SDS011;2689;50.954;7.116;2023-03-13T06:13:53;1.20;;;0.90;;
5333;SDS011;2689;50.954;7.116;2023-03-13T06:16:19;1.30;;;1.03;;
5333;SDS011;2689;50.954;7.116;2023-03-13T06:18:46;2.87;;;1.20;;
5333;SDS011;2689;50.954;7.116;2023-03-13T06:21:13;1.33;;;0.90;;
5333;SDS011;2689;50.954;7.116;2023-03-13T06:23:48;2.57;;;1.10;;
5333;SDS011;2689;50.954;7.116;2023-03-13T06:26:15;1.57;;;1.00;;
5333;SDS011;2689;50.954;7.116;2023-03-13T06:28:43;1.97;;;1.00;;
5333;SDS011;2689;50.954;7.116;2023-03-13T06:31:10;4.83;;;1.27;;
5333;SDS011;2689;50.954;7.116;2023-03-13T06:33:37;1.60;;;1.10;;
5333;SDS011;2689;50.954;7.116;2023-03-13T06:36:05;1.40;;;1.10;;
5333;SDS011;2689;50.954;7.116;2023-03-13T06:38:32;1.50;;;1.10;;
5333;SDS011;2689;50.954;7.116;2023-03-13T06:40:59;2.83;;;1.17;;
5333;SDS011;2689;50.954;7.116;2023-03-13T06:43:26;2.37;;;1.43;;
5333;SDS011;2689;50.954;7.116;2023-03-13T06:45:54;1.20;;;0.90;;
5333;SDS011;2689;50.954;7.116;2023-03-13T06:48:21;2.03;;;1.10;;
5333;SDS011;2689;50.954;7.116;2023-03-13T06:50:48;1.20;;;0.90;;
5333;SDS011;2689;50.954;7.116;2023-03-13T06:53:16;1.60;;;1.00;;
5333;SDS011;2689;50.954;7.116;2023-03-13T06:55:44;2.43;;;1.20;;
5333;SDS011;2689;50.954;7.116;2023-03-13T06:58:13;1.70;;;1.10;;
5333;SDS011;2689;50.954;7.116;2023-03-13T07:00:39;1.93;;;1.13;;
5333;SDS011;2689;50.954;7.116;2023-03-13T07:03:09;1.67;;;1.20;;
5333;SDS011;2689;50.954;7.116;2023-03-13T07:05:36;1.70;;;1.23;;
5333;SDS011;2689;50.954;7.116;2023-03-13T07:08:03;1.73;;;1.30;;
5333;SDS011;2689;50.954;7.116;2023-03-13T07:10:30;2.03;;;1.30;;
5333;SDS011;2689;50.954;7.116;2023-03-13T07:12:57;3.33;;;1.30;;
5333;SDS011;2689;50.954;7.116;2023-03-13T07:15:24;1.83;;;1.33;;
5333;SDS011;2689;50.954;7.116;2023-03-13T07:17:51;5.77;;;1.50;;
5333;SDS011;2689;50.954;7.116;2023-03-13T07:20:19;2.50;;;1.60;;
5333;SDS011;2689;50.954;7.116;2023-03-13T07:22:49;3.93;;;1.60;;
5333;SDS011;2689;50.954;7.116;2023-03-13T07:25:17;2.53;;;1.40;;
5333;SDS011;2689;50.954;7.116;2023-03-13T07:27:44;2.50;;;1.60;;
5333;SDS011;2689;50.954;7.116;2023-03-13T07:30:11;3.60;;;2.97;;
5333;SDS011;2689;50.954;7.116;2023-03-13T07:33:00;2.33;;;1.73;;
5333;SDS011;2689;50.954;7.116;2023-03-13T07:35:28;4.23;;;1.77;;
5333;SDS011;2689;50.954;7.116;2023-03-13T07:37:56;4.97;;;3.63;;
5333;SDS011;2689;50.954;7.116;2023-03-13T07:40:26;2.03;;;1.63;;
5333;SDS011;2689;50.954;7.116;2023-03-13T07:42:53;2.70;;;1.67;;
5333;SDS011;2689;50.954;7.116;2023-03-13T07:45:20;4.47;;;2.07;;
5333;SDS011;2689;50.954;7.116;2023-03-13T07:47:52;4.13;;;1.90;;
5333;SDS011;2689;50.954;7.116;2023-03-13T07:50:35;5.27;;;2.67;;
5333;SDS011;2689;50.954;7.116;2023-03-13T07:53:03;3.70;;;2.67;;
5333;SDS011;2689;50.954;7.116;2023-03-13T07:55:32;2.23;;;2.00;;
5333;SDS011;2689;50.954;7.116;2023-03-13T07:57:59;4.77;;;2.23;;
5333;SDS011;2689;50.954;7.116;2023-03-13T08:00:26;3.07;;;1.97;;
5333;SDS011;2689;50.954;7.116;2023-03-13T08:02:53;5.30;;;2.40;;
5333;SDS011;2689;50.954;7.116;2023-03-13T08:05:20;3.37;;;2.03;;
5333;SDS011;2689;50.954;7.116;2023-03-13T08:07:48;3.70;;;2.10;;
5333;SDS011;2689;50.954;7.116;2023-03-13T08:10:15;4.23;;;2.67;;
5333;SDS011;2689;50.954;7.116;2023-03-13T08:12:42;2.77;;;2.10;;
5333;SDS011;2689;50.954;7.116;2023-03-13T08:15:09;3.63;;;1.90;;
5333;SDS011;2689;50.954;7.116;2023-03-13T08:17:36;5.70;;;2.10;;
5333;SDS011;2689;50.954;7.116;2023-03-13T08:20:03;5.67;;;2.07;;
5333;SDS011;2689;50.954;7.116;2023-03-13T08:22:32;3.37;;;2.17;;
5333;SDS011;2689;50.954;7.116;2023-03-13T08:25:02;6.87;;;2.20;;
5333;SDS011;2689;50.954;7.116;2023-03-13T08:27:29;5.53;;;2.50;;
5333;SDS011;2689;50.954;7.116;2023-03-13T08:29:56;7.37;;;3.30;;
5333;SDS011;2689;50.954;7.116;2023-03-13T08:32:22;3.33;;;2.20;;
5333;SDS011;2689;50.954;7.116;2023-03-13T08:34:49;5.97;;;3.70;;
5333;SDS011;2689;50.954;7.116;2023-03-13T08:37:16;4.50;;;2.37;;
5333;SDS011;2689;50.954;7.116;2023-03-13T08:39:43;5.23;;;3.33;;
5333;SDS011;2689;50.954;7.116;2023-03-13T08:42:11;4.07;;;2.50;;
5333;SDS011;2689;50.954;7.116;2023-03-13T08:44:38;2.70;;;2.10;;
5333;SDS011;2689;50.954;7.116;2023-03-13T08:47:05;4.03;;;2.50;;
5333;SDS011;2689;50.954;7.116;2023-03-13T08:49:32;7.20;;;2.50;;
5333;SDS011;2689;50.954;7.116;2023-03-13T08:51:59;4.40;;;2.20;;
5333;SDS011;2689;50.954;7.116;2023-03-13T08:54:26;7.10;;;3.43;;
5333;SDS011;2689;50.954;7.116;2023-03-13T08:56:53;6.20;;;2.53;;
5333;SDS011;2689;50.954;7.116;2023-03-13T08:59:21;4.37;;;2.80;;
5333;SDS011;2689;50.954;7.116;2023-03-13T09:01:48;7.60;;;2.73;;
5333;SDS011;2689;50.954;7.116;2023-03-13T09:04:15;8.00;;;3.40;;
5333;SDS011;2689;50.954;7.116;2023-03-13T09:06:43;8.30;;;2.37;;
5333;SDS011;2689;50.954;7.116;2023-03-13T09:09:10;3.50;;;2.43;;
5333;SDS011;2689;50.954;7.116;2023-03-13T09:11:38;8.07;;;2.53;;
5333;SDS011;2689;50.954;7.116;2023-03-13T09:14:05;5.93;;;2.60;;
5333;SDS011;2689;50.954;7.116;2023-03-13T09:16:34;8.10;;;2.93;;
5333;SDS011;2689;50.954;7.116;2023-03-13T09:19:01;6.50;;;2.87;;
5333;SDS011;2689;50.954;7.116;2023-03-13T09:21:29;4.23;;;2.03;;
5333;SDS011;2689;50.954;7.116;2023-03-13T09:23:56;4.47;;;2.47;;
5333;SDS011;2689;50.954;7.116;2023-03-13T09:26:24;8.70;;;3.83;;
5333;SDS011;2689;50.954;7.116;2023-03-13T09:28:52;4.13;;;2.27;;
5333;SDS011;2689;50.954;7.116;2023-03-13T09:31:20;5.20;;;2.53;;
5333;SDS011;2689;50.954;7.116;2023-03-13T09:33:50;4.93;;;2.53;;
5333;SDS011;2689;50.954;7.116;2023-03-13T09:36:17;4.43;;;2.37;;
5333;SDS011;2689;50.954;7.116;2023-03-13T09:38:45;3.90;;;2.30;;
5333;SDS011;2689;50.954;7.116;2023-03-13T09:41:19;5.57;;;3.00;;
5333;SDS011;2689;50.954;7.116;2023-03-13T09:43:49;5.43;;;2.43;;
5333;SDS011;2689;50.954;7.116;2023-03-13T09:46:21;4.30;;;2.30;;
5333;SDS011;2689;50.954;7.116;2023-03-13T09:48:53;5.63;;;2.40;;
5333;SDS011;2689;50.954;7.116;2023-03-13T09:51:23;3.40;;;2.70;;
5333;SDS011;2689;50.954;7.116;2023-03-13T09:53:54;4.80;;;2.93;;
5333;SDS011;2689;50.954;7.116;2023-03-13T09:56:27;7.30;;;3.03;;
5333;SDS011;2689;50.954;7.116;2023-03-13T09:58:57;4.03;;;2.10;;
5333;SDS011;2689;50.954;7.116;2023-03-13T10:01:30;3.83;;;2.47;;
5333;SDS011;2689;50.954;7.116;2023-03-13T10:04:11;7.73;;;2.70;;
5333;SDS011;2689;50.954;7.116;2023-03-13T10:06:49;4.10;;;2.40;;
5333;SDS011;2689;50.954;7.116;2023-03-13T10:09:17;3.53;;;2.47;;
5333;SDS011;2689;50.954;7.116;2023-03-13T10:11:46;3.97;;;1.90;;
5333;SDS011;2689;50.954;7.116;2023-03-13T10:14:19;3.50;;;2.00;;
5333;SDS011;2689;50.954;7.116;2023-03-13T10:16:53;4.40;;;3.00;;
5333;SDS011;2689;50.954;7.116;2023-03-13T10:19:31;5.07;;;1.90;;
5333;SDS011;2689;50.954;7.116;2023-03-13T10:22:02;5.30;;;2.03;;
5333;SDS011;2689;50.954;7.116;2023-03-13T10:24:36;3.53;;;1.70;;
5333;SDS011;2689;50.954;7.116;2023-03-13T10:27:08;2.67;;;1.83;;
5333;SDS011;2689;50.954;7.116;2023-03-13T10:29:40;5.13;;;1.80;;
5333;SDS011;2689;50.954;7.116;2023-03-13T10:32:09;2.77;;;1.80;;
5333;SDS011;2689;50.954;7.116;2023-03-13T10:34:50;2.40;;;1.77;;
5333;SDS011;2689;50.954;7.116;2023-03-13T10:37:20;4.00;;;2.73;;
5333;SDS011;2689;50.954;7.116;2023-03-13T10:39:49;2.23;;;1.80;;
5333;SDS011;2689;50.954;7.116;2023-03-13T10:42:20;2.13;;;1.73;;
5333;SDS011;2689;50.954;7.116;2023-03-13T10:44:57;2.80;;;1.60;;
5333;SDS011;2689;50.954;7.116;2023-03-13T10:47:25;9.40;;;2.83;;
5333;SDS011;2689;50.954;7.116;2023-03-13T10:50:11;3.30;;;2.13;;
5333;SDS011;2689;50.954;7.116;2023-03-13T10:52:44;2.80;;;1.70;;
5333;SDS011;2689;50.954;7.116;2023-03-13T10:55:13;3.27;;;1.97;;
5333;SDS011;2689;50.954;7.116;2023-03-13T10:57:49;4.27;;;1.83;;
5333;SDS011;2689;50.954;7.116;2023-03-13T11:00:27;2.63;;;1.83;;
5333;SDS011;2689;50.954;7.116;2023-03-13T11:02:58;3.40;;;2.00;;
5333;SDS011;2689;50.954;7.116;2023-03-13T11:05:30;2.70;;;1.90;;
5333;SDS011;2689;50.954;7.116;2023-03-13T11:08:09;2.40;;;1.60;;
5333;SDS011;2689;50.954;7.116;2023-03-13T11:10:49;2.87;;;2.10;;
5333;SDS011;2689;50.954;7.116;2023-03-13T11:13:26;3.03;;;1.43;;
5333;SDS011;2689;50.954;7.116;2023-03-13T11:16:02;4.27;;;1.90;;
5333;SDS011;2689;50.954;7.116;2023-03-13T11:21:48;2.27;;;1.50;;
5333;SDS011;2689;50.954;7.116;2023-03-13T11:24:25;1.67;;;1.50;;
5333;SDS011;2689;50.954;7.116;2023-03-13T11:27:01;1.47;;;1.10;;
5333;SDS011;2689;50.954;7.116;2023-03-13T11:29:34;1.20;;;1.00;;
5333;SDS011;2689;50.954;7.116;2023-03-13T11:32:11;1.70;;;1.40;;
5333;SDS011;2689;50.954;7.116;2023-03-13T11:34:46;1.53;;;0.90;;
5333;SDS011;2689;50.954;7.116;2023-03-13T11:37:18;1.50;;;1.30;;
5333;SDS011;2689;50.954;7.116;2023-03-13T11:39:50;3.70;;;2.17;;
5333;SDS011;2689;50.954;7.116;2023-03-13T11:42:29;4.00;;;2.67;;
5333;SDS011;2689;50.954;7.116;2023-03-13T11:45:11;2.23;;;1.27;;
5333;SDS011;2689;50.954;7.116;2023-03-13T11:47:54;2.97;;;2.63;;
5333;SDS011;2689;50.954;7.116;2023-03-13T11:50:34;3.40;;;1.50;;
5333;SDS011;2689;50.954;7.116;2023-03-13T11:53:10;2.60;;;1.00;;
5333;SDS011;2689;50.954;7.116;2023-03-13T11:58:37;1.47;;;1.30;;
5333;SDS011;2689;50.954;7.116;2023-03-13T12:01:15;2.33;;;1.53;;
5333;SDS011;2689;50.954;7.116;2023-03-13T12:03:45;2.60;;;1.40;;
5333;SDS011;2689;50.954;7.116;2023-03-13T12:06:22;1.67;;;1.00;;
5333;SDS011;2689;50.954;7.116;2023-03-13T12:08:56;1.70;;;1.00;;
5333;SDS011;2689;50.954;7.116;2023-03-13T12:11:29;5.60;;;2.57;;
5333;SDS011;2689;50.954;7.116;2023-03-13T12:14:00;2.53;;;1.10;;
5333;SDS011;2689;50.954;7.116;2023-03-13T12:16:32;1.47;;;1.07;;
5333;SDS011;2689;50.954;7.116;2023-03-13T12:19:07;1.30;;;0.83;;
5333;SDS011;2689;50.954;7.116;2023-03-13T12:21:41;1.30;;;1.00;;
5333;SDS011;2689;50.954;7.116;2023-03-13T12:24:14;1.37;;;0.90;;
5333;SDS011;2689;50.954;7.116;2023-03-13T12:26:48;1.83;;;1.00;;
5333;SDS011;2689;50.954;7.116;2023-03-13T12:29:19;1.27;;;0.90;;
5333;SDS011;2689;50.954;7.116;2023-03-13T12:32:01;1.83;;;1.10;;
5333;SDS011;2689;50.954;7.116;2023-03-13T12:34:35;2.80;;;1.50;;
5333;SDS011;2689;50.954;7.116;2023-03-13T12:37:09;1.20;;;0.90;;
5333;SDS011;2689;50.954;7.116;2023-03-13T12:39:47;1.50;;;1.10;;
5333;SDS011;2689;50.954;7.116;2023-03-13T12:42:22;2.30;;;1.27;;
5333;SDS011;2689;50.954;7.116;2023-03-13T12:45:03;1.93;;;0.90;;
5333;SDS011;2689;50.954;7.116;2023-03-13T12:47:32;1.60;;;1.00;;
5333;SDS011;2689;50.954;7.116;2023-03-13T12:50:06;5.30;;;0.90;;
5333;SDS011;2689;50.954;7.116;2023-03-13T12:52:47;1.80;;;1.10;;
5333;SDS011;2689;50.954;7.116;2023-03-13T12:58:25;1.30;;;0.93;;
5333;SDS011;2689;50.954;7.116;2023-03-13T13:00:55;3.83;;;1.10;;
5333;SDS011;2689;50.954;7.116;2023-03-13T13:03:30;4.70;;;1.70;;
5333;SDS011;2689;50.954;7.116;2023-03-13T13:06:06;2.70;;;1.73;;
5333;SDS011;2689;50.954;7.116;2023-03-13T13:08:36;1.50;;;1.00;;
5333;SDS011;2689;50.954;7.116;2023-03-13T13:17:18;2.63;;;1.10;;
5333;SDS011;2689;50.954;7.116;2023-03-13T13:23:25;4.10;;;1.23;;
5333;SDS011;2689;50.954;7.116;2023-03-13T13:32:27;3.47;;;1.10;;
5333;SDS011;2689;50.954;7.116;2023-03-13T13:35:03;3.30;;;1.70;;
5333;SDS011;2689;50.954;7.116;2023-03-13T13:37:31;2.27;;;1.73;;
5333;SDS011;2689;50.954;7.116;2023-03-13T13:40:15;3.43;;;1.60;;
5333;SDS011;2689;50.954;7.116;2023-03-13T13:42:50;2.97;;;1.50;;
5333;SDS011;2689;50.954;7.116;2023-03-13T13:45:26;1.70;;;1.30;;
5333;SDS011;2689;50.954;7.116;2023-03-13T13:53:43;2.63;;;1.40;;
5333;SDS011;2689;50.954;7.116;2023-03-13T13:59:02;3.03;;;1.60;;
5333;SDS011;2689;50.954;7.116;2023-03-13T14:01:50;1.70;;;1.03;;
5333;SDS011;2689;50.954;7.116;2023-03-13T14:04:39;1.23;;;1.00;;
5333;SDS011;2689;50.954;7.116;2023-03-13T14:07:10;2.70;;;1.10;;
5333;SDS011;2689;50.954;7.116;2023-03-13T14:09:43;1.40;;;1.10;;
5333;SDS011;2689;50.954;7.116;2023-03-13T14:12:25;1.40;;;1.10;;
5333;SDS011;2689;50.954;7.116;2023-03-13T14:15:08;1.67;;;1.20;;
5333;SDS011;2689;50.954;7.116;2023-03-13T14:17:41;4.07;;;2.23;;
5333;SDS011;2689;50.954;7.116;2023-03-13T14:22:59;2.70;;;0.90;;
5333;SDS011;2689;50.954;7.116;2023-03-13T14:25:27;1.50;;;1.00;;
5333;SDS011;2689;50.954;7.116;2023-03-13T14:28:05;2.77;;;1.40;;
5333;SDS011;2689;50.954;7.116;2023-03-13T14:30:43;1.97;;;1.10;;
5333;SDS011;2689;50.954;7.116;2023-03-13T14:33:10;1.30;;;0.93;;
5333;SDS011;2689;50.954;7.116;2023-03-13T14:35:37;1.83;;;1.17;;
5333;SDS011;2689;50.954;7.116;2023-03-13T14:38:05;6.13;;;4.60;;
5333;SDS011;2689;50.954;7.116;2023-03-13T14:40:32;1.20;;;0.83;;
5333;SDS011;2689;50.954;7.116;2023-03-13T14:43:02;1.87;;;1.10;;
5333;SDS011;2689;50.954;7.116;2023-03-13T14:45:30;1.77;;;0.80;;
5333;SDS011;2689;50.954;7.116;2023-03-13T14:48:01;2.80;;;1.07;;
5333;SDS011;2689;50.954;7.116;2023-03-13T14:50:29;1.80;;;1.40;;
5333;SDS011;2689;50.954;7.116;2023-03-13T14:52:58;1.83;;;1.20;;
5333;SDS011;2689;50.954;7.116;2023-03-13T14:55:31;1.20;;;0.80;;
5333;SDS011;2689;50.954;7.116;2023-03-13T14:58:00;5.73;;;1.20;;
5333;SDS011;2689;50.954;7.116;2023-03-13T15:00:30;1.20;;;0.90;;
5333;SDS011;2689;50.954;7.116;2023-03-13T15:03:27;1.53;;;1.33;;
5333;SDS011;2689;50.954;7.116;2023-03-13T15:06:03;1.20;;;0.83;;
5333;SDS011;2689;50.954;7.116;2023-03-13T15:08:33;1.73;;;1.20;;
5333;SDS011;2689;50.954;7.116;2023-03-13T15:11:01;2.40;;;0.97;;
5333;SDS011;2689;50.954;7.116;2023-03-13T15:13:42;1.30;;;0.90;;
5333;SDS011;2689;50.954;7.116;2023-03-13T15:16:12;2.70;;;1.40;;
5333;SDS011;2689;50.954;7.116;2023-03-13T15:18:42;1.30;;;1.00;;
5333;SDS011;2689;50.954;7.116;2023-03-13T15:21:21;1.10;;;0.93;;
5333;SDS011;2689;50.954;7.116;2023-03-13T15:24:09;1.30;;;0.90;;
5333;SDS011;2689;50.954;7.116;2023-03-13T15:26:42;1.30;;;0.90;;
5333;SDS011;2689;50.954;7.116;2023-03-13T15:29:14;1.87;;;1.00;;
5333;SDS011;2689;50.954;7.116;2023-03-13T15:31:42;1.77;;;0.90;;
5333;SDS011;2689;50.954;7.116;2023-03-13T15:34:12;3.00;;;1.20;;
5333;SDS011;2689;50.954;7.116;2023-03-13T15:36:40;1.53;;;0.97;;
5333;SDS011;2689;50.954;7.116;2023-03-13T15:39:10;2.07;;;1.40;;
5333;SDS011;2689;50.954;7.116;2023-03-13T15:41:54;1.50;;;1.10;;
5333;SDS011;2689;50.954;7.116;2023-03-13T15:44:25;2.20;;;1.60;;
5333;SDS011;2689;50.954;7.116;2023-03-13T15:46:57;1.57;;;1.10;;
5333;SDS011;2689;50.954;7.116;2023-03-13T15:49:30;1.27;;;1.03;;
5333;SDS011;2689;50.954;7.116;2023-03-13T15:51:57;2.97;;;1.30;;
5333;SDS011;2689;50.954;7.116;2023-03-13T15:54:24;2.60;;;1.20;;
5333;SDS011;2689;50.954;7.116;2023-03-13T15:56:51;1.93;;;0.90;;
5333;SDS011;2689;50.954;7.116;2023-03-13T15:59:18;1.40;;;0.90;;
5333;SDS011;2689;50.954;7.116;2023-03-13T16:01:46;1.20;;;0.90;;
5333;SDS011;2689;50.954;7.116;2023-03-13T16:04:14;1.63;;;0.90;;
5333;SDS011;2689;50.954;7.116;2023-03-13T16:06:46;2.50;;;1.30;;
5333;SDS011;2689;50.954;7.116;2023-03-13T16:09:14;3.00;;;2.20;;
5333;SDS011;2689;50.954;7.116;2023-03-13T16:11:41;2.33;;;1.17;;